Time;durP1;ratioP1;P1;durP2;ratioP2;P2;SDS_P1;SDS_P2;PMS_P1;PMS_P2;Temp;Humidity;BMP_temperature;BMP_pressure;BME280_temperature;BME280_humidity;BME280_pressure;Samples;Min_cycle;Max_cycle;Signal;HPM_P1;HPM_P2
2022/02/25 00:00:07;;;;;;;3.78;0.80;;;;;;;;;;5072621;28;20029;-55
2022/02/25 00:02:33;;;;;;;3.75;0.60;;;;;;;;;;5072305;28;20040;-57
2022/02/25 00:04:59;;;;;;;2.45;0.52;;;;;;;;;;5072538;28;20028;-56
2022/02/25 00:07:25;;;;;;;1.75;0.60;;;;;;;;;;5072551;28;20028;-56
2022/02/25 00:09:51;;;;;;;0.88;0.50;;;;;;;;;;5072787;28;20020;-56
2022/02/25 00:12:17;;;;;;;1.58;0.60;;;;;;;;;;5072439;28;20036;-57
2022/02/25 00:14:43;;;;;;;4.10;0.85;;;;;;;;;;5072570;28;20067;-57
2022/02/25 00:17:09;;;;;;;2.25;0.50;;;;;;;;;;5072468;28;20493;-56
2022/02/25 00:19:35;;;;;;;2.20;0.80;;;;;;;;;;5072406;28;20031;-57
2022/02/25 00:22:01;;;;;;;2.92;0.80;;;;;;;;;;5072424;28;20056;-57
2022/02/25 00:24:26;;;;;;;2.10;0.60;;;;;;;;;;5072461;28;20032;-56
2022/02/25 00:26:52;;;;;;;1.33;0.70;;;;;;;;;;5072482;28;20372;-57
2022/02/25 00:29:18;;;;;;;2.50;0.65;;;;;;;;;;5072272;28;20398;-55
2022/02/25 00:31:44;;;;;;;3.05;0.70;;;;;;;;;;5072207;28;20063;-56
2022/02/25 00:34:10;;;;;;;2.05;0.82;;;;;;;;;;5072263;28;20024;-56
2022/02/25 00:36:36;;;;;;;2.33;0.55;;;;;;;;;;5072211;28;20063;-55
2022/02/25 00:39:04;;;;;;;1.17;0.57;;;15.60;86.70;;;;;;5072269;28;20111;-55
2022/02/25 00:41:30;;;;;;;0.70;0.50;;;;;;;;;;5072132;28;20023;-56
2022/02/25 00:43:56;;;;;;;2.50;0.70;;;;;;;;;;5072191;28;20033;-57
2022/02/25 00:46:22;;;;;;;2.97;0.77;;;;;;;;;;5072252;28;20029;-56
2022/02/25 00:48:49;;;;;;;1.55;0.60;;;;;;;;;;5072081;28;20059;-55
2022/02/25 00:51:15;;;;;;;2.58;0.77;;;;;;;;;;5072072;28;20053;-56
2022/02/25 00:53:41;;;;;;;0.90;0.57;;;;;;;;;;5072301;28;20058;-56
2022/02/25 00:56:07;;;;;;;1.05;0.40;;;;;;;;;;5072100;28;20501;-55
2022/02/25 00:58:33;;;;;;;1.77;0.70;;;;;;;;;;5072012;28;20073;-56
2022/02/25 01:00:59;;;;;;;2.90;0.63;;;;;;;;;;5072017;28;20463;-56
2022/02/25 01:03:25;;;;;;;3.00;0.75;;;;;;;;;;5071866;28;20595;-46
2022/02/25 01:05:51;;;;;;;2.83;0.73;;;;;;;;;;5071952;28;20036;-46
2022/02/25 01:08:17;;;;;;;2.05;0.80;;;;;;;;;;5071975;28;20096;-46
2022/02/25 01:10:43;;;;;;;1.77;0.70;;;;;;;;;;5071808;28;20044;-46
2022/02/25 01:13:09;;;;;;;2.88;0.88;;;;;;;;;;5071862;28;20024;-47
2022/02/25 01:15:35;;;;;;;1.38;0.60;;;;;;;;;;5071864;28;20158;-46
2022/02/25 01:18:01;;;;;;;3.90;0.70;;;;;;;;;;5071800;28;20029;-47
2022/02/25 01:20:27;;;;;;;2.20;0.50;;;;;;;;;;5071858;28;20024;-46
2022/02/25 01:22:53;;;;;;;1.90;0.80;;;;;;;;;;5071814;28;20032;-46
2022/02/25 01:25:19;;;;;;;3.60;0.70;;;;;;;;;;5071742;28;20390;-46
2022/02/25 01:27:45;;;;;;;1.50;0.70;;;;;;;;;;5071965;28;20025;-46
2022/02/25 01:30:12;;;;;;;2.95;1.00;;;;;;;;;;5071731;28;20110;-46
2022/02/25 01:32:38;;;;;;;2.13;0.85;;;;;;;;;;5071606;28;20120;-46
2022/02/25 01:35:04;;;;;;;2.47;0.52;;;;;;;;;;5071687;28;20463;-47
2022/02/25 01:37:30;;;;;;;1.95;0.73;;;;;;;;;;5071723;28;20038;-46
2022/02/25 01:39:56;;;;;;;2.28;0.73;;;;;;;;;;5071737;28;20108;-46
2022/02/25 01:42:22;;;;;;;4.05;1.52;;;;;;;;;;5075237;28;20024;-46
2022/02/25 01:44:48;;;;;;;1.33;0.75;;;;;;;;;;5075144;28;20111;-46
2022/02/25 01:47:15;;;;;;;2.72;0.75;;;;;;;;;;5075094;28;20075;-46
2022/02/25 01:49:42;;;;;;;2.55;0.50;;;;;;;;;;5075345;28;20179;-46
2022/02/25 01:52:15;;;;;;;1.50;0.82;;;15.40;88.70;;;;;;5074939;28;20072;-45
2022/02/25 01:54:45;;;;;;;2.47;0.60;;;15.40;82.70;;;;;;5075244;28;20387;-46
2022/02/25 01:57:11;;;;;;;3.50;1.05;;;;;;;;;;5074919;28;20090;-46
2022/02/25 01:59:38;;;;;;;3.65;0.60;;;;;;;;;;5075209;28;20075;-46
2022/02/25 02:02:04;;;;;;;1.38;0.80;;;;;;;;;;5074542;28;20138;-46
2022/02/25 02:04:30;;;;;;;5.15;0.90;;;;;;;;;;5074881;28;20025;-46
2022/02/25 02:06:56;;;;;;;2.67;0.68;;;;;;;;;;5074708;28;20024;-46
2022/02/25 02:09:22;;;;;;;1.83;0.63;;;;;;;;;;5074654;28;20028;-46
2022/02/25 02:11:52;;;;;;;1.63;0.60;;;15.40;88.80;;;;;;5074590;28;20123;-46
2022/02/25 02:14:20;;;;;;;1.77;0.60;;;15.30;88.70;;;;;;5074616;28;20029;-46
2022/02/25 02:16:48;;;;;;;4.50;1.00;;;15.30;88.80;;;;;;5074708;28;20053;-46
2022/02/25 02:19:14;;;;;;;2.78;0.63;;;15.30;85.30;;;;;;5074533;28;20032;-46
2022/02/25 02:21:46;;;;;;;2.53;0.75;;;15.30;88.80;;;;;;5074549;28;20032;-46
2022/02/25 02:24:13;;;;;;;2.28;0.40;;;15.30;85.50;;;;;;5074436;28;20025;-46
2022/02/25 02:26:39;;;;;;;2.92;0.65;;;;;;;;;;5074357;28;20025;-46
2022/02/25 02:29:06;;;;;;;1.58;0.50;;;15.30;88.80;;;;;;5074341;28;20112;-47
2022/02/25 02:31:32;;;;;;;2.75;0.50;;;;;;;;;;5074480;28;20036;-46
2022/02/25 02:33:59;;;;;;;2.05;0.70;;;15.30;86.10;;;;;;5074262;28;20028;-46
2022/02/25 02:36:25;;;;;;;2.95;1.08;;;;;;;;;;5074481;28;20142;-46
2022/02/25 02:38:51;;;;;;;2.53;0.70;;;;;;;;;;5074179;28;20056;-46
2022/02/25 02:41:17;;;;;;;2.92;0.63;;;;;;;;;;5074118;28;20063;-47
2022/02/25 02:43:43;;;;;;;5.50;0.85;;;;;;;;;;5074014;28;20028;-46
2022/02/25 02:46:09;;;;;;;1.00;0.57;;;;;;;;;;5073966;28;20032;-46
2022/02/25 02:48:36;;;;;;;1.60;0.63;;;;;;;;;;5073986;28;20035;-46
2022/02/25 02:51:01;;;;;;;3.72;0.63;;;;;;;;;;5073756;28;20033;-46
2022/02/25 02:53:28;;;;;;;3.42;0.85;;;;;;;;;;5072907;28;20036;-46
2022/02/25 02:55:54;;;;;;;2.70;0.68;;;;;;;;;;5073826;28;20047;-46
2022/02/25 02:58:20;;;;;;;4.93;0.70;;;;;;;;;;5073701;28;20029;-46
2022/02/25 03:00:48;;;;;;;2.58;0.68;;;15.20;89.00;;;;;;5073739;28;20047;-46
2022/02/25 03:03:14;;;;;;;2.33;0.75;;;;;;;;;;5073362;28;20043;-46
2022/02/25 03:05:40;;;;;;;3.00;0.52;;;;;;;;;;5073665;28;20029;-46
2022/02/25 03:08:07;;;;;;;2.03;0.50;;;;;;;;;;5073627;28;20075;-47
2022/02/25 03:10:33;;;;;;;0.80;0.45;;;;;;;;;;5073544;28;20029;-46
2022/02/25 03:12:59;;;;;;;2.38;0.60;;;15.10;86.50;;;;;;5073446;28;20032;-47
2022/02/25 03:15:25;;;;;;;4.53;0.80;;;;;;;;;;5073376;28;20025;-46
2022/02/25 03:17:51;;;;;;;3.33;0.95;;;;;;;;;;5073405;28;20055;-46
2022/02/25 03:20:17;;;;;;;3.58;1.00;;;;;;;;;;5073302;28;20027;-46
2022/02/25 03:22:43;;;;;;;2.03;0.73;;;;;;;;;;5073261;28;20081;-46
2022/02/25 03:25:09;;;;;;;2.50;0.55;;;;;;;;;;5073491;28;20024;-46
2022/02/25 03:27:36;;;;;;;2.92;0.90;;;;;;;;;;5073130;28;20368;-47
2022/02/25 03:30:02;;;;;;;3.25;0.77;;;15.10;88.20;;;;;;5073214;28;20032;-46
2022/02/25 03:32:28;;;;;;;2.05;0.77;;;;;;;;;;5072999;28;20047;-46
2022/02/25 03:34:54;;;;;;;3.60;1.00;;;;;;;;;;5073070;28;20086;-47
2022/02/25 03:37:20;;;;;;;4.78;1.05;;;;;;;;;;5072968;28;20036;-46
2022/02/25 03:39:47;;;;;;;4.93;1.10;;;15.00;86.00;;;;;;5073215;28;20021;-46
2022/02/25 03:42:13;;;;;;;2.58;0.73;;;;;;;;;;5072909;28;20028;-46
2022/02/25 03:44:39;;;;;;;2.83;0.80;;;;;;;;;;5072848;28;20037;-46
2022/02/25 03:47:05;;;;;;;2.55;0.88;;;;;;;;;;5072867;28;20107;-46
2022/02/25 03:49:31;;;;;;;2.83;0.90;;;;;;;;;;5072829;28;20104;-46
2022/02/25 03:51:57;;;;;;;2.95;0.70;;;;;;;;;;5072699;28;20555;-47
2022/02/25 03:54:23;;;;;;;2.05;0.68;;;;;;;;;;5072648;28;20028;-47
2022/02/25 03:56:49;;;;;;;2.13;0.68;;;;;;;;;;5072727;28;20032;-46
2022/02/25 03:59:15;;;;;;;3.63;0.93;;;;;;;;;;5072865;28;20039;-46
2022/02/25 04:01:41;;;;;;;4.28;1.02;;;;;;;;;;5072388;28;20479;-46
2022/02/25 04:04:07;;;;;;;4.05;1.33;;;;;;;;;;5072224;28;20037;-46
2022/02/25 04:06:33;;;;;;;1.42;0.77;;;;;;;;;;5072556;28;20298;-48
2022/02/25 04:09:00;;;;;;;4.03;0.88;;;15.00;89.10;;;;;;5072728;28;20385;-46
2022/02/25 04:11:26;;;;;;;1.75;0.57;;;;;;;;;;5072360;28;20367;-46
2022/02/25 04:13:53;;;;;;;2.20;1.13;;;;;;;;;;5072447;28;20037;-46
2022/02/25 04:16:20;;;;;;;2.92;1.10;;;;;;;;;;5072398;28;20020;-46
2022/02/25 04:18:46;;;;;;;1.92;0.70;;;;;;;;;;5072390;28;20035;-46
2022/02/25 04:21:13;;;;;;;2.58;0.82;;;;;;;;;;5072374;28;20033;-45
2022/02/25 04:23:39;;;;;;;4.07;0.80;;;;;;;;;;5072315;28;20020;-46
2022/02/25 04:26:05;;;;;;;2.15;0.70;;;;;;;;;;5072450;28;20024;-46
2022/02/25 04:28:31;;;;;;;1.08;0.60;;;;;;;;;;5072338;28;20426;-46
2022/02/25 04:30:57;;;;;;;3.17;0.90;;;;;;;;;;5072263;28;20036;-46
2022/02/25 04:33:23;;;;;;;3.30;0.88;;;;;;;;;;5072259;28;20094;-46
2022/02/25 04:35:49;;;;;;;3.78;1.00;;;;;;;;;;5070958;28;20029;-46
2022/02/25 04:38:15;;;;;;;2.53;0.70;;;;;;;;;;5072180;28;20524;-47
2022/02/25 04:40:42;;;;;;;3.15;0.80;;;;;;;;;;5072164;28;20025;-46
2022/02/25 04:43:08;;;;;;;4.85;0.95;;;;;;;;;;5072278;28;20386;-46
2022/02/25 04:45:34;;;;;;;6.50;1.20;;;;;;;;;;5072123;28;20036;-46
2022/02/25 04:48:00;;;;;;;2.70;0.65;;;;;;;;;;5072214;28;20033;-46
2022/02/25 04:50:26;;;;;;;3.00;0.85;;;;;;;;;;5072091;28;20044;-46
2022/02/25 04:52:52;;;;;;;3.15;0.88;;;;;;;;;;5071987;28;20036;-46
2022/02/25 04:55:20;;;;;;;2.40;0.98;;;;;;;;;;5072278;28;20025;-46
2022/02/25 04:57:46;;;;;;;2.90;0.70;;;;;;;;;;5071993;28;20040;-46
2022/02/25 05:00:13;;;;;;;1.67;0.82;;;14.80;89.20;;;;;;5072045;28;20533;-46
2022/02/25 05:02:39;;;;;;;3.40;0.65;;;;;;;;;;5071878;28;20558;-46
2022/02/25 05:05:06;;;;;;;3.00;1.00;;;14.80;89.20;;;;;;5071990;28;20036;-46
2022/02/25 05:07:32;;;;;;;3.58;1.08;;;;;;;;;;5071932;28;20107;-46
2022/02/25 05:09:58;;;;;;;4.00;0.77;;;;;;;;;;5071930;28;20028;-46
2022/02/25 05:12:25;;;;;;;2.97;0.88;;;;;;;;;;5072080;28;20131;-46
2022/02/25 05:20:26;;;;;;;2.67;1.05;;;;;;;;;;5075976;28;20028;-46
2022/02/25 05:22:52;;;;;;;4.28;0.90;;;;;;;;;;5075626;28;20028;-46
2022/02/25 05:25:18;;;;;;;4.22;1.00;;;;;;;;;;5075792;28;20028;-46
2022/02/25 05:27:44;;;;;;;1.77;0.77;;;;;;;;;;5075430;28;20467;-46
2022/02/25 05:30:10;;;;;;;3.53;0.70;;;;;;;;;;5075457;28;20025;-46
2022/02/25 05:32:36;;;;;;;2.72;0.60;;;;;;;;;;5075309;28;20072;-46
2022/02/25 05:35:02;;;;;;;2.38;0.50;;;;;;;;;;5075208;28;20060;-46
2022/02/25 05:37:28;;;;;;;2.72;0.68;;;;;;;;;;5075607;28;20037;-46
2022/02/25 05:39:54;;;;;;;3.90;1.08;;;;;;;;;;5075362;28;20101;-47
2022/02/25 05:42:21;;;;;;;1.88;0.75;;;;;;;;;;5075264;28;20029;-46
2022/02/25 05:44:47;;;;;;;4.30;1.10;;;;;;;;;;5075121;28;20016;-47
2022/02/25 05:47:14;;;;;;;3.65;0.93;;;;;;;;;;5075465;28;20035;-46
2022/02/25 05:49:40;;;;;;;3.28;1.02;;;;;;;;;;5075055;28;20547;-45
2022/02/25 05:52:06;;;;;;;3.05;0.85;;;;;;;;;;5074990;28;20111;-46
2022/02/25 05:54:33;;;;;;;2.35;0.80;;;;;;;;;;5075050;28;20399;-45
2022/02/25 05:56:59;;;;;;;3.58;1.10;;;;;;;;;;5075000;28;20031;-45
2022/02/25 05:59:25;;;;;;;4.93;1.23;;;;;;;;;;5075034;28;20017;-46
2022/02/25 06:01:51;;;;;;;4.25;0.95;;;;;;;;;;5074594;28;20225;-46
2022/02/25 06:04:17;;;;;;;1.92;0.60;;;;;;;;;;5074918;28;20124;-46
2022/02/25 06:06:43;;;;;;;3.22;0.63;;;;;;;;;;5074838;28;20092;-47
2022/02/25 06:09:09;;;;;;;1.92;0.82;;;;;;;;;;5074725;28;20056;-46
2022/02/25 06:11:35;;;;;;;2.97;0.70;;;;;;;;;;5074663;28;20042;-46
2022/02/25 06:14:01;;;;;;;2.95;0.80;;;;;;;;;;5074681;28;20437;-46
2022/02/25 06:16:27;;;;;;;3.17;1.13;;;;;;;;;;5074696;28;20032;-57
2022/02/25 06:18:53;;;;;;;2.13;0.95;;;;;;;;;;5074605;28;20052;-56
2022/02/25 06:21:19;;;;;;;1.67;0.88;;;;;;;;;;5074496;28;20032;-56
2022/02/25 06:23:45;;;;;;;2.45;0.77;;;;;;;;;;5074742;28;20097;-58
2022/02/25 06:26:11;;;;;;;2.58;0.70;;;;;;;;;;5074204;28;20025;-56
2022/02/25 06:28:37;;;;;;;1.27;0.75;;;;;;;;;;5074447;28;20027;-56
2022/02/25 06:31:03;;;;;;;4.30;0.90;;;;;;;;;;5074269;28;20060;-56
2022/02/25 06:33:29;;;;;;;4.88;1.33;;;;;;;;;;5074385;28;20119;-55
2022/02/25 06:35:55;;;;;;;2.60;0.82;;;;;;;;;;5074317;28;20020;-56
2022/02/25 06:38:21;;;;;;;3.58;0.93;;;;;;;;;;5074208;28;20386;-56
2022/02/25 06:40:47;;;;;;;2.97;0.60;;;;;;;;;;5074227;28;20028;-56
2022/02/25 06:43:13;;;;;;;4.13;1.00;;;;;;;;;;5074110;28;20082;-55
2022/02/25 06:45:39;;;;;;;4.85;0.98;;;;;;;;;;5074109;28;20028;-56
2022/02/25 06:48:05;;;;;;;2.22;0.90;;;;;;;;;;5073965;28;20028;-56
2022/02/25 06:50:31;;;;;;;2.92;1.10;;;;;;;;;;5074016;28;20047;-56
2022/02/25 06:52:56;;;;;;;3.20;0.95;;;;;;;;;;5073886;28;20498;-56
2022/02/25 06:55:22;;;;;;;3.63;0.80;;;;;;;;;;5073812;28;20098;-55
2022/02/25 06:57:48;;;;;;;5.07;1.05;;;;;;;;;;5073764;28;20036;-56
2022/02/25 07:00:21;;;;;;;7.07;1.38;;;;;;;;;;5073704;28;20029;-59
2022/02/25 07:02:47;;;;;;;3.20;1.13;;;;;;;;;;5073323;28;20065;-59
2022/02/25 07:05:13;;;;;;;5.68;1.08;;;;;;;;;;5073546;28;20043;-59
2022/02/25 07:07:39;;;;;;;4.60;0.85;;;;;;;;;;5073642;28;20471;-59
2022/02/25 07:10:06;;;;;;;2.88;0.98;;;;;;;;;;5073618;28;20032;-59
2022/02/25 07:12:32;;;;;;;5.18;0.80;;;;;;;;;;5073387;28;20127;-58
2022/02/25 07:14:58;;;;;;;6.28;1.25;;;;;;;;;;5073430;28;20029;-57
2022/02/25 07:17:24;;;;;;;2.53;0.88;;;;;;;;;;5073398;28;20091;-57
2022/02/25 07:19:50;;;;;;;6.50;1.08;;;;;;;;;;5073362;28;20107;-58
2022/02/25 07:22:16;;;;;;;5.03;1.10;;;;;;;;;;5073201;28;20103;-57
2022/02/25 07:24:42;;;;;;;2.67;0.98;;;;;;;;;;5073086;28;20060;-58
2022/02/25 07:27:08;;;;;;;8.50;1.55;;;;;;;;;;5073127;28;20136;-58
2022/02/25 07:29:34;;;;;;;4.93;1.15;;;;;;;;;;5073304;28;20491;-59
2022/02/25 07:32:00;;;;;;;6.10;1.20;;;;;;;;;;5072938;28;20119;-59
2022/02/25 07:34:27;;;;;;;3.83;1.20;;;;;;;;;;5073045;28;20052;-59
2022/02/25 07:36:53;;;;;;;4.80;1.10;;;;;;;;;;5072948;28;20505;-58
2022/02/25 07:39:19;;;;;;;5.47;1.05;;;;;;;;;;5072257;28;20471;-57
2022/02/25 07:41:45;;;;;;;4.65;1.00;;;;;;;;;;5073199;28;20078;-58
2022/02/25 07:44:11;;;;;;;5.95;1.10;;;;;;;;;;5072803;28;20485;-57
2022/02/25 07:46:37;;;;;;;3.85;0.88;;;;;;;;;;5072754;28;20376;-58
2022/02/25 07:49:03;;;;;;;4.35;1.20;;;;;;;;;;5072797;28;20028;-58
2022/02/25 07:51:30;;;;;;;4.00;1.00;;;;;;;;;;5072593;28;20123;-58
2022/02/25 07:53:56;;;;;;;5.30;0.80;;;;;;;;;;5072608;28;20086;-58
2022/02/25 07:56:22;;;;;;;4.97;1.23;;;16.50;86.70;;;;;;5072655;28;20471;-58
2022/02/25 07:58:49;;;;;;;1.67;0.82;;;;;;;;;;5072568;28;20033;-57
2022/02/25 08:01:15;;;;;;;4.72;1.35;;;;;;;;;;5072557;28;20040;-58
2022/02/25 08:03:41;;;;;;;4.05;1.10;;;16.80;85.10;;;;;;5072461;28;20106;-59
2022/02/25 08:06:07;;;;;;;4.97;1.27;;;;;;;;;;5072546;28;20028;-58
2022/02/25 08:08:33;;;;;;;3.83;1.17;;;;;;;;;;5072427;28;20032;-59
2022/02/25 08:10:59;;;;;;;3.10;1.00;;;;;;;;;;5072332;28;20032;-58
2022/02/25 08:13:25;;;;;;;3.25;1.08;;;;;;;;;;5072360;28;20035;-58
2022/02/25 08:15:51;;;;;;;3.10;1.17;;;;;;;;;;5072355;28;20028;-59
2022/02/25 08:18:17;;;;;;;5.18;1.75;;;;;;;;;;5072213;28;20463;-59
2022/02/25 08:20:43;;;;;;;3.75;1.10;;;;;;;;;;5072269;28;20020;-59
2022/02/25 08:23:09;;;;;;;4.55;1.00;;;;;;;;;;5072143;28;20031;-58
2022/02/25 08:25:39;;;;;;;3.90;1.05;;;17.30;85.60;;;;;;5072229;28;20035;-59
2022/02/25 08:28:09;;;;;;;4.37;1.17;;;17.40;80.20;;;;;;5072264;28;20020;-59
2022/02/25 08:30:36;;;;;;;;;;;17.50;86.40;;;;;;5072506;28;20028;-59
2022/02/25 08:33:02;;;;;;;5.25;1.15;;;;;;;;;;5072027;28;19912;-59
2022/02/25 08:35:31;;;;;;;3.58;0.80;;;17.70;87.00;;;;;;5072325;28;20039;-61
2022/02/25 08:37:57;;;;;;;5.22;1.05;;;;;;;;;;5072247;28;20356;-56
2022/02/25 08:40:24;;;;;;;4.68;0.98;;;18.00;83.40;;;;;;5071869;28;20024;-57
2022/02/25 08:42:50;;;;;;;4.80;1.20;;;;;;;;;;5071975;28;20052;-58
2022/02/25 08:45:17;;;;;;;5.03;0.90;;;;;;;;;;5072025;28;20117;-58
2022/02/25 08:47:44;;;;;;;2.35;0.80;;;17.80;86.30;;;;;;5071994;28;20021;-58
2022/02/25 08:50:12;;;;;;;5.35;1.13;;;17.90;86.50;;;;;;5074152;28;20111;-59
2022/02/25 08:52:38;;;;;;;4.93;0.98;;;;;;;;;;5075928;28;20511;-57
2022/02/25 08:55:04;;;;;;;2.78;0.77;;;17.70;84.50;;;;;;5075921;28;20475;-58
2022/02/25 08:57:30;;;;;;;3.67;1.17;;;;;;;;;;5075929;28;20067;-57
2022/02/25 08:59:56;;;;;;;2.80;1.15;;;;;;;;;;5075870;28;20062;-59
2022/02/25 09:02:22;;;;;;;2.78;1.08;;;;;;;;;;5075658;28;20137;-60
2022/02/25 09:04:48;;;;;;;2.47;1.00;;;;;;;;;;5075762;28;20029;-58
2022/02/25 09:07:15;;;;;;;2.42;1.08;;;17.50;87.00;;;;;;5076056;28;20029;-58
2022/02/25 09:09:41;;;;;;;3.55;1.10;;;;;;;;;;5075604;28;20032;-59
2022/02/25 09:12:09;;;;;;;6.13;1.88;;;17.70;86.90;;;;;;5075444;28;20110;-59
2022/02/25 09:14:36;;;;;;;4.93;1.50;;;;;;;;;;5075574;28;20031;-57
2022/02/25 09:17:02;;;;;;;3.25;1.10;;;;;;;;;;5075598;28;20107;-58
2022/02/25 09:19:28;;;;;;;4.68;1.00;;;;;;;;;;5075579;28;20024;-57
2022/02/25 09:21:54;;;;;;;7.43;1.58;;;;;;;;;;5075634;28;20074;-56
2022/02/25 09:24:21;;;;;;;4.65;1.23;;;;;;;;;;5075603;28;20060;-59
2022/02/25 09:26:48;;;;;;;4.38;1.30;;;17.60;84.70;;;;;;5076186;28;20020;-56
2022/02/25 09:29:14;;;;;;;4.70;1.38;;;;;;;;;;5075555;28;20029;-58
2022/02/25 09:31:40;;;;;;;2.03;0.80;;;;;;;;;;5075639;28;20033;-54
2022/02/25 09:34:07;;;;;;;4.32;1.13;;;;;;;;;;5076511;28;20436;-60
2022/02/25 09:36:33;;;;;;;4.15;1.10;;;;;;;;;;5075820;28;20025;-57
2022/02/25 09:38:59;;;;;;;7.03;1.20;;;;;;;;;;5075341;28;20081;-58
2022/02/25 09:41:26;;;;;;;6.55;1.08;;;17.70;87.70;;;;;;5075650;28;20035;-58
2022/02/25 09:43:52;;;;;;;5.97;1.13;;;;;;;;;;5075864;28;20079;-59
2022/02/25 09:46:18;;;;;;;7.65;1.30;;;;;;;;;;5075509;28;20037;-59
2022/02/25 09:48:44;;;;;;;4.03;1.05;;;;;;;;;;5075439;28;20048;-57
2022/02/25 09:51:10;;;;;;;4.80;1.05;;;;;;;;;;5075036;28;20082;-57
2022/02/25 09:53:38;;;;;;;3.55;1.10;;;;;;;;;;5074181;28;20478;-57
2022/02/25 09:56:04;;;;;;;5.30;1.10;;;;;;;;;;5075353;28;20471;-59
2022/02/25 09:58:30;;;;;;;3.72;1.00;;;;;;;;;;5075756;28;20085;-59
2022/02/25 10:00:56;;;;;;;6.13;1.27;;;;;;;;;;5074087;28;20036;-59
2022/02/25 10:03:25;;;;;;;3.33;0.90;;;;;;;;;;5076164;28;20048;-59
2022/02/25 10:05:51;;;;;;;4.95;1.15;;;;;;;;;;5075719;28;20391;-59
2022/02/25 10:08:20;;;;;;;7.53;1.30;;;18.20;86.70;;;;;;5075178;28;20368;-59
2022/02/25 10:10:54;;;;;;;6.50;1.63;;;18.30;80.60;;;;;;5074669;28;20165;-59
2022/02/25 10:13:23;;;;;;;5.78;1.30;;;18.30;86.70;;;;;;5074023;28;20483;-58
2022/02/25 10:15:52;;;;;;;5.68;0.90;;;18.20;86.60;;;;;;5074993;28;20025;-59
2022/02/25 10:18:26;;;;;;;5.07;1.60;;;18.30;86.50;;;;;;5074739;28;20436;-59
2022/02/25 10:21:11;;;;;;;3.85;1.23;;;18.20;80.10;;;;;;5074593;28;20497;-59
2022/02/25 10:23:45;;;;;;;4.72;1.13;;;18.30;80.00;;;;;;5074578;28;20028;-58
2022/02/25 10:26:18;;;;;;;5.70;1.45;;;18.10;80.30;;;;;;5074424;28;20029;-58
2022/02/25 10:28:46;;;;;;;4.88;1.33;;;;;;;;;;5074813;28;20033;-59
2022/02/25 10:31:24;;;;;;;4.32;1.52;;;18.20;80.20;;;;;;5074166;28;20032;-59
2022/02/25 10:34:04;;;;;;;3.90;1.05;;;18.30;81.00;;;;;;5074316;28;20028;-47
2022/02/25 10:36:49;;;;;;;4.83;1.50;;;18.40;80.90;;;;;;5074241;28;20024;-47
2022/02/25 10:39:26;;;;;;;3.85;1.33;;;18.40;80.80;;;;;;5074213;28;20037;-47
2022/02/25 10:42:01;;;;;;;4.43;1.10;;;18.50;80.70;;;;;;5074359;28;20420;-46
2022/02/25 10:44:47;;;;;;;5.32;1.38;;;18.50;80.80;;;;;;5074098;28;20032;-47
2022/02/25 10:47:27;;;;;;;6.28;1.27;;;18.50;80.70;;;;;;5073970;28;20020;-46
2022/02/25 10:50:02;;;;;;;5.00;1.20;;;18.50;80.60;;;;;;5074029;28;20394;-47
2022/02/25 10:52:34;;;;;;;5.20;1.40;;;18.50;86.70;;;;;;5073825;28;20040;-47
2022/02/25 10:55:01;;;;;;;5.50;1.23;;;18.60;86.90;;;;;;5073823;28;20166;-47
2022/02/25 10:57:28;;;;;;;3.45;1.25;;;18.50;86.10;;;;;;5073835;28;20028;-46
2022/02/25 10:59:55;;;;;;;4.35;1.23;;;18.60;84.90;;;;;;5073686;28;20471;-46
2022/02/25 11:02:43;;;;;;;3.20;0.90;;;18.50;86.70;;;;;;5073410;28;20059;-46
2022/02/25 11:05:20;;;;;;;3.65;1.20;;;18.60;81.00;;;;;;5073682;28;20048;-46
2022/02/25 11:07:51;;;;;;;2.72;0.98;;;18.70;86.90;;;;;;5073455;28;20035;-46
2022/02/25 11:10:21;;;;;;;3.78;1.00;;;18.60;86.60;;;;;;5073756;28;20108;-48
2022/02/25 11:12:49;;;;;;;3.60;1.20;;;18.70;86.60;;;;;;5072841;28;20060;-47
2022/02/25 11:15:17;;;;;;;7.30;1.13;;;18.60;86.30;;;;;;5073240;28;20021;-47
2022/02/25 11:17:45;;;;;;;8.40;1.38;;;18.60;86.40;;;;;;5073524;28;20048;-47
2022/02/25 11:20:12;;;;;;;4.70;1.02;;;18.60;86.10;;;;;;5073145;28;20024;-46
2022/02/25 11:22:40;;;;;;;4.57;1.50;;;18.60;86.50;;;;;;5073248;28;20139;-47
2022/02/25 11:25:08;;;;;;;11.43;1.73;;;18.60;86.40;;;;;;5073143;28;20104;-46
2022/02/25 11:27:35;;;;;;;6.10;1.05;;;;;;;;;;5073169;28;20027;-46
2022/02/25 11:30:01;;;;;;;13.98;1.50;;;;;;;;;;5073000;28;20024;-46
2022/02/25 11:33:00;;;;;;;4.65;1.30;;;18.40;86.00;;;;;;5072658;28;20047;-47
2022/02/25 11:35:30;;;;;;;3.72;1.35;;;18.40;85.90;;;;;;5067001;28;20045;-46
2022/02/25 11:38:07;;;;;;;3.45;1.52;;;18.30;80.10;;;;;;5072692;28;20025;-47
2022/02/25 11:40:59;;;;;;;3.65;1.30;;;18.20;79.20;;;;;;5072561;28;20039;-46
2022/02/25 11:43:31;;;;;;;5.75;1.20;;;18.10;79.50;;;;;;5072605;28;20032;-47
2022/02/25 11:45:58;;;;;;;5.10;1.35;;;;;;;;;;5072686;28;20083;-46
2022/02/25 11:48:25;;;;;;;5.25;1.30;;;18.10;85.60;;;;;;5072618;28;20032;-46
2022/02/25 11:50:54;;;;;;;6.22;1.40;;;18.10;85.50;;;;;;5072374;28;20641;-46
2022/02/25 11:53:23;;;;;;;3.13;1.23;;;18.00;85.50;;;;;;5072194;28;20040;-46
2022/02/25 11:55:50;;;;;;;3.38;1.10;;;18.00;85.40;;;;;;5072372;28;20025;-46
2022/02/25 11:58:41;;;;;;;5.68;1.40;;;17.90;79.40;;;;;;5072612;28;20482;-46
2022/02/25 12:01:27;;;;;;;5.60;1.40;;;17.90;87.10;;;;;;5072508;28;20059;-46
2022/02/25 12:04:07;;;;;;;5.25;1.60;;;17.90;81.40;;;;;;5072120;28;20116;-46
2022/02/25 12:06:55;;;;;;;3.95;1.30;;;17.90;81.30;;;;;;5072853;28;20055;-46
2022/02/25 12:09:45;;;;;;;5.72;1.55;;;17.80;87.50;;;;;;5072316;28;20025;-46
2022/02/25 12:12:23;;;;;;;4.30;1.00;;;17.80;81.30;;;;;;5052220;28;20041;-46
2022/02/25 12:15:07;;;;;;;6.70;1.23;;;17.90;81.30;;;;;;5072616;28;20382;-47
2022/02/25 12:17:44;;;;;;;5.03;1.20;;;17.80;81.20;;;;;;5072383;28;20586;-46
2022/02/25 12:20:40;;;;;;;4.30;1.13;;;17.80;81.20;;;;;;5072348;28;20060;-46
2022/02/25 12:23:06;;;;;;;3.45;0.90;;;;;;;;;;5072388;28;20536;-46
2022/02/25 12:25:43;;;;;;;4.95;1.35;;;17.80;81.10;;;;;;5072143;28;20481;-47
2022/02/25 12:28:14;;;;;;;3.65;1.30;;;17.70;81.30;;;;;;5072242;28;20031;-46
2022/02/25 12:30:47;;;;;;;4.15;1.30;;;17.70;81.30;;;;;;5072133;28;20077;-47
2022/02/25 12:33:40;;;;;;;3.65;1.27;;;17.70;81.40;;;;;;5072070;28;20037;-48
2022/02/25 12:36:35;;;;;;;5.05;1.70;;;17.70;81.40;;;;;;5072082;28;20039;-47
2022/02/25 12:39:10;;;;;;;6.38;1.52;;;17.60;87.50;;;;;;5072072;28;20075;-48
2022/02/25 12:41:52;;;;;;;3.50;1.00;;;17.60;87.70;;;;;;5072098;28;20386;-47
2022/02/25 12:44:24;;;;;;;4.82;1.70;;;17.90;81.70;;;;;;5072161;28;20060;-56
2022/02/25 12:46:56;;;;;;;5.15;1.10;;;17.60;87.90;;;;;;5072171;28;20063;-57
2022/02/25 12:49:24;;;;;;;5.28;1.35;;;17.50;87.70;;;;;;5072306;28;20068;-57
2022/02/25 12:51:53;;;;;;;7.10;1.42;;;17.30;87.40;;;;;;5072139;28;20111;-57
2022/02/25 12:54:20;;;;;;;3.72;1.20;;;17.50;87.60;;;;;;5071941;28;20107;-57
2022/02/25 12:56:51;;;;;;;5.70;1.48;;;17.50;87.70;;;;;;5071921;28;20038;-56
2022/02/25 12:59:23;;;;;;;5.47;1.50;;;17.60;87.70;;;;;;5071952;28;20024;-57
2022/02/25 13:01:49;;;;;;;3.17;0.80;;;;;;;;;;5070400;28;20044;-48
2022/02/25 13:04:28;;;;;;;6.03;1.67;;;17.40;81.80;;;;;;5071961;28;20025;-48
2022/02/25 13:06:56;;;;;;;5.38;1.63;;;17.40;88.00;;;;;;5071839;28;20036;-48
2022/02/25 13:09:24;;;;;;;3.50;1.25;;;17.50;87.90;;;;;;5071821;28;20020;-46
2022/02/25 13:11:52;;;;;;;6.43;1.67;;;17.60;87.80;;;;;;5071617;28;20047;-47
2022/02/25 13:14:18;;;;;;;5.40;1.45;;;;;;;;;;5071677;28;20028;-47
2022/02/25 13:17:03;;;;;;;3.78;1.45;;;17.50;81.90;;;;;;5071863;28;20020;-47
2022/02/25 13:19:32;;;;;;;4.53;1.17;;;17.50;87.90;;;;;;5071775;28;20028;-47
2022/02/25 13:22:11;;;;;;;7.00;1.48;;;17.60;81.80;;;;;;5071633;28;20017;-47
2022/02/25 13:24:51;;;;;;;4.68;1.20;;;17.60;88.00;;;;;;5071696;28;20090;-47
2022/02/25 13:27:17;;;;;;;3.58;1.30;;;;;;;;;;5071701;28;20462;-46
2022/02/25 13:29:49;;;;;;;5.65;1.48;;;17.80;81.90;;;;;;5071581;28;20081;-47
2022/02/25 13:32:15;;;;;;;6.18;1.60;;;;;;;;;;5071534;28;20040;-48
2022/02/25 13:34:41;;;;;;;5.38;1.17;;;;;;;;;;5071581;28;20025;-47
2022/02/25 13:37:07;;;;;;;6.40;1.52;;;;;;;;;;5073613;28;20383;-47
2022/02/25 13:39:33;;;;;;;5.85;1.45;;;;;;;;;;5075288;28;20035;-46
2022/02/25 13:41:59;;;;;;;6.05;1.40;;;17.90;85.50;;;;;;5075117;28;20036;-48
2022/02/25 13:44:36;;;;;;;3.38;1.20;;;17.90;87.50;;;;;;5075067;28;20027;-47
2022/02/25 13:52:34;;;;;;;4.03;1.38;;;;;;;;;;5075052;28;20414;-47
2022/02/25 13:55:06;;;;;;;4.18;1.30;;;18.00;87.10;;;;;;5074884;28;20021;-44
2022/02/25 13:57:38;;;;;;;4.32;1.13;;;18.00;80.80;;;;;;5075237;28;20099;-58
2022/02/25 14:00:16;;;;;;;4.30;1.42;;;18.00;86.80;;;;;;5074795;28;20028;-57
2022/02/25 14:02:43;;;;;;;3.33;1.23;;;;;;;;;;5074426;28;20407;-58
2022/02/25 14:05:12;;;;;;;4.68;1.25;;;18.00;87.10;;;;;;5074741;28;20083;-50
2022/02/25 14:07:48;;;;;;;5.00;1.52;;;18.00;81.50;;;;;;5074921;28;20107;-50
2022/02/25 14:10:26;;;;;;;4.72;1.45;;;17.70;80.90;;;;;;5074607;28;20479;-58
2022/02/25 14:12:53;;;;;;;3.78;1.27;;;17.90;84.80;;;;;;5074353;28;20043;-60
2022/02/25 14:15:20;;;;;;;5.95;1.13;;;17.90;85.60;;;;;;5074584;28;20035;-61
2022/02/25 14:17:47;;;;;;;6.35;1.52;;;17.80;86.40;;;;;;5074439;28;20098;-59